Time;durP1;ratioP1;P1;durP2;ratioP2;P2;SDS_P1;SDS_P2;PMS_P1;PMS_P2;Temp;Humidity;BMP_temperature;BMP_pressure;BME280_temperature;BME280_humidity;BME280_pressure;Samples;Min_cycle;Max_cycle;Signal;HPM_P1;HPM_P2
2022/07/30 00:01:02;;;;;;;4.18;1.20;;;;;;;15.49;61.09;100145.78;5031640;28;20117;-53
2022/07/30 00:03:28;;;;;;;3.45;1.40;;;;;;;15.43;61.22;100124.78;5030319;28;20060;-53
2022/07/30 00:05:54;;;;;;;3.72;1.10;;;;;;;15.44;61.41;100137.28;5035551;28;20041;-52
2022/07/30 00:08:21;;;;;;;2.88;1.13;;;;;;;15.40;61.33;100133.16;5046506;28;20485;-53
2022/07/30 00:10:47;;;;;;;2.03;1.02;;;;;;;15.36;61.66;100138.03;5048580;28;20029;-53
2022/07/30 00:13:13;;;;;;;3.70;1.50;;;;;;;15.31;61.80;100127.66;5033982;28;20046;-56
2022/07/30 00:15:38;;;;;;;3.20;1.23;;;;;;;15.31;61.86;100135.75;5050119;28;20110;-52
2022/07/30 00:18:04;;;;;;;3.63;1.20;;;;;;;15.30;61.87;100139.47;5043922;28;20028;-52
2022/07/30 00:20:30;;;;;;;3.08;1.00;;;;;;;15.28;62.17;100137.91;5043961;28;20033;-53
2022/07/30 00:22:55;;;;;;;3.50;1.20;;;;;;;15.27;62.36;100137.06;5054529;28;20140;-54
2022/07/30 00:25:21;;;;;;;3.35;1.10;;;;;;;15.23;62.34;100134.78;5052335;28;20162;-55
2022/07/30 00:27:47;;;;;;;3.13;1.38;;;;;;;15.20;63.00;100131.41;5052003;28;20087;-54
2022/07/30 00:30:13;;;;;;;4.05;1.25;;;;;;;15.17;62.52;100141.63;5052423;28;20033;-54
2022/07/30 00:32:39;;;;;;;4.25;1.00;;;;;;;14.97;62.50;100100.38;5048531;28;20025;-54
2022/07/30 00:35:05;;;;;;;4.22;1.30;;;;;;;15.13;62.75;100146.47;5046062;28;20021;-56
2022/07/30 00:37:30;;;;;;;2.75;1.40;;;;;;;15.10;62.99;100133.28;5053901;28;20445;-55
2022/07/30 00:39:56;;;;;;;4.25;1.70;;;;;;;15.09;63.01;100136.13;5053177;28;20053;-54
2022/07/30 00:42:24;;;;;;;2.35;1.10;;;;;;;15.05;63.36;100128.31;5051632;28;20040;-50
2022/07/30 00:44:53;;;;;;;1.85;1.20;;;;;;;15.03;63.52;100141.09;5045148;28;20030;-50
2022/07/30 00:47:19;;;;;;;1.92;1.25;;;;;;;14.82;63.65;100113.47;5033688;28;20041;-52
2022/07/30 00:49:45;;;;;;;2.55;1.20;;;;;;;14.98;63.75;100142.53;5033245;28;20029;-54
2022/07/30 00:52:11;;;;;;;2.40;1.23;;;;;;;14.97;63.78;100133.59;5040463;28;20116;-50
2022/07/30 00:54:37;;;;;;;3.22;1.25;;;;;;;14.97;64.15;100130.03;5035355;28;20036;-52
2022/07/30 00:57:02;;;;;;;3.42;1.30;;;;;;;14.93;64.65;100126.75;5033592;28;20029;-51
2022/07/30 00:59:28;;;;;;;2.22;1.40;;;;;;;14.93;64.69;100124.06;5034319;28;20434;-53
2022/07/30 01:01:53;;;;;;;4.90;1.75;;;;;;;14.90;65.05;100129.75;5052778;28;20021;-54
2022/07/30 01:04:20;;;;;;;2.63;1.67;;;;;;;14.90;65.02;100141.41;5047794;28;20033;-51
2022/07/30 01:06:46;;;;;;;3.53;1.70;;;;;;;14.85;65.42;100138.28;5033166;28;20048;-53
2022/07/30 01:09:13;;;;;;;4.15;1.63;;;;;;;14.86;65.77;100125.66;5033159;28;20406;-56
2022/07/30 01:11:41;;;;;;;3.78;1.80;;;;;;;14.86;65.58;100134.59;5032998;28;20038;-54
2022/07/30 01:14:08;;;;;;;6.32;1.67;;;;;;;14.83;65.83;100128.63;5049421;28;20039;-51
2022/07/30 01:16:36;;;;;;;2.42;1.60;;;;;;;14.78;65.91;100124.53;5045899;28;20033;-54
2022/07/30 01:22:02;;;;;;;1.88;1.55;;;;;;;14.82;66.08;100122.38;5037280;28;20033;-54
2022/07/30 01:24:34;;;;;;;2.38;1.40;;;;;;;14.63;66.16;100088.22;5051101;28;20037;-64
2022/07/30 01:27:01;;;;;;;5.50;1.65;;;;;;;14.75;66.70;100127.53;5040604;28;20037;-54
2022/07/30 01:29:28;;;;;;;4.90;1.50;;;;;;;14.75;66.72;100126.66;5048419;28;20155;-52
2022/07/30 01:31:58;;;;;;;3.17;1.40;;;;;;;14.74;66.63;100130.34;5047295;28;20033;-50
2022/07/30 01:34:28;;;;;;;3.17;1.42;;;;;;;14.62;66.67;100110.75;5032846;28;20045;-56
2022/07/30 01:36:57;;;;;;;2.90;1.27;;;;;;;14.56;66.66;100097.88;5037105;28;20029;-55
2022/07/30 01:39:25;;;;;;;3.45;1.40;;;;;;;14.54;66.46;100097.16;5050736;28;20033;-53
2022/07/30 01:41:53;;;;;;;2.15;1.40;;;;;;;14.70;67.12;100123.53;5050721;28;20536;-50
2022/07/30 01:44:20;;;;;;;5.07;1.60;;;;;;;14.70;67.10;100129.75;5052939;28;20028;-51
2022/07/30 01:46:47;;;;;;;2.70;1.60;;;;;;;14.67;67.32;100119.25;5041503;28;20496;-53
2022/07/30 01:49:14;;;;;;;4.57;1.55;;;;;;;14.74;67.07;100130.34;5034619;28;20056;-51
2022/07/30 01:51:41;;;;;;;2.15;1.30;;;;;;;14.57;66.94;100099.56;5045650;28;20021;-53
2022/07/30 01:54:09;;;;;;;7.47;1.73;;;;;;;14.73;66.85;100118.75;5032372;28;20037;-49
2022/07/30 01:56:36;;;;;;;7.20;1.45;;;;;;;14.76;66.97;100129.22;5032226;28;20091;-51
2022/07/30 01:59:06;;;;;;;3.75;1.50;;;;;;;14.80;66.76;100128.94;5045852;28;20190;-52
2022/07/30 02:01:31;;;;;;;6.93;1.92;;;;;;;14.81;66.92;100120.69;5051867;28;20067;-51
2022/07/30 02:04:00;;;;;;;5.13;1.90;;;;;;;14.86;66.74;100128.34;5051821;28;20037;-54
2022/07/30 02:06:36;;;;;;;5.10;1.70;;;;;;;14.90;66.64;100135.16;5051439;28;20103;-59
2022/07/30 02:09:05;;;;;;;4.90;1.50;;;;;;;14.90;66.35;100136.00;5032238;28;20511;-50
2022/07/30 02:14:28;;;;;;;7.20;1.60;;;;;;;14.95;66.32;100132.91;5037765;28;20037;-49
2022/07/30 02:16:57;;;;;;;3.75;1.80;;;;;;;14.95;66.32;100137.41;5043987;28;20033;-47
2022/07/30 02:19:28;;;;;;;3.47;1.92;;;;;;;14.99;66.31;100134.28;5040282;28;20121;-48
2022/07/30 02:22:05;;;;;;;2.13;1.58;;;;;;;15.06;66.37;100134.53;5031422;28;20032;-50
2022/07/30 02:24:33;;;;;;;3.97;1.50;;;;;;;14.90;65.87;100109.06;5032254;28;20033;-52
2022/07/30 02:27:14;;;;;;;3.10;1.38;;;;;;;15.07;66.17;100114.66;5029588;28;20036;-51
2022/07/30 02:29:42;;;;;;;3.65;1.50;;;;;;;15.19;65.75;100135.09;5031633;28;20461;-49
2022/07/30 02:32:11;;;;;;;4.45;1.67;;;;;;;15.27;65.49;100136.19;5044925;28;20033;-50
2022/07/30 02:34:39;;;;;;;2.53;1.80;;;;;;;15.36;65.15;100138.03;5051052;28;20121;-51
2022/07/30 02:37:07;;;;;;;3.33;1.70;;;;;;;15.45;64.98;100150.63;5044185;28;20116;-66
2022/07/30 02:39:35;;;;;;;5.88;1.52;;;;;;;15.49;64.56;100146.63;5042578;28;20459;-53
2022/07/30 02:42:01;;;;;;;1.88;1.63;;;;;;;15.54;64.15;100140.78;5033130;28;20063;-53
2022/07/30 02:44:29;;;;;;;3.33;2.00;;;;;;;15.41;64.03;100121.38;5031470;28;20098;-53
2022/07/30 02:46:56;;;;;;;5.90;1.55;;;;;;;15.63;63.98;100164.19;5044637;28;20575;-51
2022/07/30 02:49:23;;;;;;;5.63;1.77;;;;;;;15.61;63.65;100158.09;5051810;28;20044;-52
2022/07/30 02:51:49;;;;;;;3.80;1.67;;;;;;;15.68;63.68;100157.50;5050346;28;20024;-56
2022/07/30 02:54:18;;;;;;;1.60;1.48;;;;;;;15.74;63.48;100162.31;5051110;28;20055;-52
2022/07/30 02:56:46;;;;;;;3.63;1.60;;;;;;;15.75;63.17;100156.75;5047789;28;20025;-50
2022/07/30 02:59:14;;;;;;;7.57;1.88;;;;;;;15.75;63.16;100151.34;5051650;28;20044;-55
2022/07/30 03:01:41;;;;;;;4.07;1.63;;;;;;;15.86;63.20;100163.78;5045642;28;20021;-54
2022/07/30 03:04:07;;;;;;;4.75;1.80;;;;;;;15.92;62.89;100163.25;5041455;28;20037;-63
2022/07/30 03:06:34;;;;;;;4.10;1.67;;;;;;;15.99;62.65;100166.16;5031191;28;20113;-55
2022/07/30 03:09:02;;;;;;;4.25;1.48;;;;;;;16.06;61.80;100164.59;5033739;28;20086;-53
2022/07/30 03:11:30;;;;;;;3.80;1.83;;;;;;;16.13;61.88;100163.97;5051054;28;20072;-54
2022/07/30 03:13:55;;;;;;;4.93;1.65;;;;;;;16.18;61.26;100151.72;5050672;28;20056;-55
2022/07/30 03:16:24;;;;;;;2.13;1.27;;;;;;;16.29;61.14;100156.03;5040433;28;20489;-55
2022/07/30 03:18:52;;;;;;;7.20;1.50;;;;;;;16.35;60.50;100157.25;5041835;28;20037;-56
2022/07/30 03:21:22;;;;;;;3.53;1.67;;;;;;;16.40;60.28;100148.72;5033825;28;20041;-58
2022/07/30 03:23:49;;;;;;;4.20;1.60;;;;;;;16.49;59.64;100151.34;5031220;28;20381;-55
2022/07/30 03:26:18;;;;;;;2.67;1.40;;;;;;;16.61;59.63;100151.09;5030920;28;20136;-59
2022/07/30 03:28:45;;;;;;;3.38;1.45;;;;;;;16.72;59.07;100167.09;5031660;28;20037;-55
2022/07/30 03:31:14;;;;;;;3.20;1.30;;;;;;;16.86;58.75;100164.81;5032152;28;20164;-57
2022/07/30 03:33:40;;;;;;;5.78;1.48;;;;;;;17.00;57.76;100163.44;5029520;28;20037;-51
2022/07/30 03:36:07;;;;;;;1.35;1.05;;;;;;;17.28;56.74;100164.13;5035880;28;20040;-47
2022/07/30 03:38:36;;;;;;;1.73;1.23;;;;;;;17.72;55.83;100159.63;5034321;28;20071;-52
2022/07/30 03:41:03;;;;;;;6.30;1.02;;;;;;;18.54;53.23;100155.47;5052654;28;20040;-50
2022/07/30 03:43:29;;;;;;;1.65;1.00;;;;;;;19.59;49.96;100141.13;5040870;28;20037;-49
2022/07/30 03:45:57;;;;;;;1.13;1.00;;;;;;;20.86;46.82;100160.13;5034899;28;20029;-48
2022/07/30 03:48:24;;;;;;;2.50;1.10;;;;;;;22.06;43.19;100152.91;5034178;28;20114;-55
2022/07/30 03:50:50;;;;;;;3.65;1.20;;;;;;;23.30;40.63;100151.97;5034710;28;20071;-55
2022/07/30 03:53:16;;;;;;;1.20;0.90;;;;;;;24.23;38.52;100157.06;5040713;28;20040;-56
2022/07/30 03:55:42;;;;;;;3.08;0.85;;;;;;;25.21;36.02;100151.28;5040126;28;20037;-58
2022/07/30 03:58:08;;;;;;;1.65;1.00;;;;;;;26.20;33.60;100153.97;5034885;28;20041;-59
2022/07/30 04:00:34;;;;;;;1.00;0.85;;;;;;;27.29;32.07;100149.38;5049764;28;20032;-54
2022/07/30 04:02:59;;;;;;;2.78;0.90;;;;;;;28.24;30.28;100140.88;5054635;28;20547;-51
2022/07/30 04:05:25;;;;;;;4.32;1.00;;;;;;;29.15;28.29;100148.13;5054595;28;20522;-54
2022/07/30 04:07:50;;;;;;;2.58;1.13;;;;;;;29.79;27.51;100144.63;5054103;28;20462;-54
2022/07/30 04:10:16;;;;;;;1.17;1.10;;;;;;;30.21;26.99;100148.19;5053283;28;20041;-51
2022/07/30 04:12:42;;;;;;;1.35;0.90;;;;;;;30.67;26.01;100145.47;5053913;28;20137;-49
2022/07/30 04:15:08;;;;;;;1.85;1.20;;;;;;;31.36;24.86;100147.13;5039506;28;20106;-49
2022/07/30 04:17:48;;;;;;;1.73;1.35;;;;;;;32.38;24.56;100149.75;5040157;28;20033;-50
2022/07/30 04:20:23;;;;;;;1.55;1.00;;;;;;;33.14;21.99;100147.91;5037532;28;20389;-51
2022/07/30 04:22:50;;;;;;;3.53;1.10;;;;;;;33.79;21.51;100142.19;5034102;28;20045;-52
2022/07/30 04:25:17;;;;;;;2.67;1.00;;;;;;;34.50;20.61;100148.22;5035003;28;20029;-55
2022/07/30 04:27:43;;;;;;;2.15;0.90;;;;;;;35.02;19.76;100149.09;5034175;28;20533;-58
2022/07/30 04:30:09;;;;;;;1.27;1.00;;;;;;;35.51;18.90;100135.66;5034338;28;20516;-55
2022/07/30 04:32:36;;;;;;;3.17;1.08;;;;;;;36.08;18.03;100140.97;5033752;28;20120;-54
2022/07/30 04:35:03;;;;;;;1.50;0.93;;;;;;;36.78;17.07;100153.88;5051947;28;20102;-54
2022/07/30 04:37:29;;;;;;;2.17;0.82;;;;;;;37.38;16.65;100153.84;5053478;28;20117;-53
2022/07/30 04:40:13;;;;;;;3.60;1.08;;;;;;;38.37;17.07;100162.69;5052717;28;20112;-56
2022/07/30 04:42:38;;;;;;;1.20;0.90;;;;;;;38.51;15.35;100150.75;5047237;28;20108;-54
2022/07/30 04:45:04;;;;;;;1.50;0.95;;;;;;;39.06;14.84;100155.72;5033973;28;20493;-54
2022/07/30 04:47:30;;;;;;;1.20;0.80;;;;;;;39.57;13.84;100159.50;5038193;28;20029;-56
2022/07/30 04:49:56;;;;;;;1.35;0.82;;;;;;;40.22;13.69;100161.50;5040103;28;20466;-55
2022/07/30 04:52:22;;;;;;;2.05;1.00;;;;;;;40.75;12.97;100159.97;5034132;28;20068;-55
2022/07/30 04:54:53;;;;;;;1.00;0.90;;;;;;;41.21;12.45;100162.75;5053653;28;20052;-56
2022/07/30 04:57:19;;;;;;;2.47;0.80;;;;;;;41.46;12.25;100155.53;5033827;28;20181;-57
2022/07/30 04:59:45;;;;;;;4.60;0.73;;;;;;;41.67;11.91;100163.41;5049662;28;20033;-55
2022/07/30 05:02:11;;;;;;;1.88;0.95;;;;;;;41.84;11.41;100165.44;5053349;28;20033;-56
2022/07/30 05:04:39;;;;;;;1.90;0.82;;;;;;;42.15;11.31;100168.16;5053338;28;20171;-52
2022/07/30 05:07:06;;;;;;;1.00;0.85;;;;;;;42.31;10.80;100174.09;5048646;28;20036;-57
2022/07/30 05:09:32;;;;;;;1.23;0.85;;;;;;;42.48;10.65;100171.69;5044915;28;20474;-56
2022/07/30 05:11:58;;;;;;;2.78;1.00;;;;;;;42.88;10.56;100160.19;5032973;28;20529;-57
2022/07/30 05:14:25;;;;;;;3.42;1.13;;;;;;;43.40;10.17;100170.47;5033233;28;20132;-56
2022/07/30 05:16:51;;;;;;;0.90;0.90;;;;;;;43.83;10.07;100174.22;5047878;28;20025;-57
2022/07/30 05:19:18;;;;;;;1.10;1.00;;;;;;;44.15;9.56;100174.72;5041359;28;20033;-51
2022/07/30 05:21:43;;;;;;;1.17;0.80;;;;;;;44.54;9.06;100179.38;5042920;28;20033;-56
2022/07/30 05:24:09;;;;;;;1.02;0.80;;;;;;;44.83;8.94;100178.44;5042506;28;20668;-56
2022/07/30 05:26:35;;;;;;;1.27;0.85;;;;;;;45.04;8.79;100176.72;5041688;28;20120;-58
2022/07/30 05:29:01;;;;;;;0.73;0.73;;;;;;;45.15;9.09;100172.28;5041398;28;20029;-58
2022/07/30 05:31:26;;;;;;;0.70;0.70;;;;;;;45.54;8.31;100172.78;5040682;28;20029;-56
2022/07/30 05:33:52;;;;;;;1.40;0.90;;;;;;;46.02;8.27;100169.44;5040521;28;20090;-63
2022/07/30 05:36:20;;;;;;;1.67;0.95;;;;;;;46.53;7.93;100176.63;5042175;28;20025;-53
2022/07/30 05:38:47;;;;;;;1.77;0.82;;;;;;;46.63;7.54;100173.28;5041305;28;20036;-56
2022/07/30 05:41:13;;;;;;;0.80;0.80;;;;;;;47.02;7.36;100172.72;5043503;28;20067;-55
2022/07/30 05:43:38;;;;;;;1.52;0.70;;;;;;;47.41;6.81;100167.28;5041255;28;20115;-56
2022/07/30 05:46:04;;;;;;;1.67;0.90;;;;;;;47.65;7.00;100171.09;5040321;28;20030;-57
2022/07/30 05:48:33;;;;;;;4.03;1.10;;;;;;;47.57;7.45;100184.25;5042675;28;20377;-58
2022/07/30 05:51:02;;;;;;;3.78;0.90;;;;;;;46.98;6.89;100152.78;5038463;28;20034;-58
2022/07/30 05:53:27;;;;;;;0.70;0.70;;;;;;;45.48;7.73;100174.19;5038925;28;20025;-59
2022/07/30 05:55:53;;;;;;;1.05;0.90;;;;;;;45.36;7.94;100171.41;5041635;28;20022;-57
2022/07/30 05:58:19;;;;;;;1.65;0.80;;;;;;;45.91;7.96;100156.97;5039350;28;20033;-59
2022/07/30 06:00:44;;;;;;;1.08;0.82;;;;;;;46.78;7.79;100177.34;5042980;28;20047;-58
2022/07/30 06:03:10;;;;;;;1.13;0.95;;;;;;;47.30;7.54;100177.50;5039629;28;20029;-54
2022/07/30 06:05:36;;;;;;;1.55;1.00;;;;;;;47.76;7.13;100144.97;5041729;28;20049;-60
2022/07/30 06:08:02;;;;;;;1.17;0.80;;;;;;;48.13;7.15;100168.13;5040711;28;20037;-59
2022/07/30 06:10:28;;;;;;;1.15;0.77;;;;;;;48.42;7.11;100176.44;5042007;28;20501;-57
2022/07/30 06:12:53;;;;;;;2.13;0.63;;;;;;;48.99;6.09;100171.06;5044451;28;20116;-60
2022/07/30 06:15:19;;;;;;;0.95;0.70;;;;;;;49.28;6.56;100173.56;5052299;28;20044;-57
2022/07/30 06:17:46;;;;;;;2.55;0.70;;;;;;;49.40;6.15;100178.22;5045210;28;20033;-58
2022/07/30 06:20:12;;;;;;;0.90;0.90;;;;;;;49.32;6.33;100173.63;5031789;28;20033;-55
2022/07/30 06:22:38;;;;;;;0.85;0.80;;;;;;;48.84;6.46;100160.63;5032015;28;20397;-59
2022/07/30 06:25:05;;;;;;;1.83;1.00;;;;;;;48.19;6.27;100164.97;5049842;28;20099;-57
2022/07/30 06:27:32;;;;;;;2.80;0.68;;;;;;;47.06;6.86;100155.84;5051065;28;20032;-58
2022/07/30 06:30:03;;;;;;;1.17;0.93;;;;;;;46.35;7.49;100165.59;5048487;28;20021;-56
2022/07/30 06:32:29;;;;;;;1.00;0.75;;;;;;;46.84;7.37;100153.22;5041006;28;20044;-59
2022/07/30 06:34:55;;;;;;;1.50;1.00;;;;;;;48.39;6.71;100160.94;5041740;28;20026;-59
2022/07/30 06:37:20;;;;;;;0.90;0.90;;;;;;;50.01;5.86;100155.59;5035770;28;20100;-56
2022/07/30 06:39:46;;;;;;;3.17;1.00;;;;;;;50.17;5.83;100163.13;5051544;28;20056;-55
2022/07/30 06:42:11;;;;;;;3.47;1.10;;;;;;;49.79;5.83;100166.66;5050895;28;20036;-58
2022/07/30 06:44:37;;;;;;;2.38;1.17;;;;;;;50.74;5.48;100167.88;5042182;28;20485;-56
2022/07/30 06:47:02;;;;;;;1.85;0.98;;;;;;;51.11;5.55;100175.56;5030957;28;20033;-58
2022/07/30 06:49:31;;;;;;;1.00;0.80;;;;;;;48.52;6.61;100180.69;5045947;28;20477;-58
2022/07/30 06:51:56;;;;;;;2.30;1.20;;;;;;;46.04;8.06;100167.06;5046632;28;20025;-57
2022/07/30 06:54:22;;;;;;;1.10;1.00;;;;;;;47.08;7.50;100153.44;5031517;28;20040;-59
2022/07/30 06:56:47;;;;;;;1.58;1.17;;;;;;;48.96;6.64;100168.13;5031234;28;20033;-59
2022/07/30 06:59:13;;;;;;;1.50;1.02;;;;;;;48.94;6.54;100170.53;5038211;28;20487;-58
2022/07/30 07:01:38;;;;;;;1.70;0.95;;;;;;;49.56;6.13;100166.72;5036447;28;20033;-58
2022/07/30 07:04:04;;;;;;;1.48;0.85;;;;;;;47.75;7.00;100155.53;5030528;28;20039;-59
2022/07/30 07:06:29;;;;;;;1.38;1.02;;;;;;;45.47;8.46;100164.06;5030707;28;20048;-57
2022/07/30 07:08:55;;;;;;;4.93;1.17;;;;;;;46.51;7.95;100150.69;5050962;28;20114;-55
2022/07/30 07:11:20;;;;;;;1.75;1.20;;;;;;;48.40;6.93;100168.28;5051017;28;20042;-65
2022/07/30 07:13:45;;;;;;;0.95;0.85;;;;;;;49.87;6.30;100167.63;5046650;28;20112;-58
2022/07/30 07:16:11;;;;;;;0.98;0.98;;;;;;;51.14;5.13;100169.09;5039261;28;20223;-58
2022/07/30 07:18:36;;;;;;;1.00;0.90;;;;;;;51.51;5.02;100151.03;5043607;28;20396;-58
2022/07/30 07:21:02;;;;;;;1.97;0.90;;;;;;;49.16;6.02;100149.00;5032048;28;20040;-60
2022/07/30 07:23:27;;;;;;;2.17;1.05;;;;;;;45.41;8.25;100151.38;5030567;28;20636;-57
2022/07/30 07:25:55;;;;;;;0.93;0.90;;;;;;;45.20;8.24;100177.69;5031584;28;20104;-62
2022/07/30 07:28:20;;;;;;;1.33;0.90;;;;;;;47.59;7.38;100169.69;5041354;28;20044;-56
2022/07/30 07:30:46;;;;;;;1.63;0.93;;;;;;;49.92;5.59;100164.44;5038473;28;20029;-58
2022/07/30 07:33:11;;;;;;;0.90;0.90;;;;;;;51.66;5.11;100159.72;5050446;28;20245;-58
2022/07/30 07:35:37;;;;;;;1.20;1.10;;;;;;;53.18;4.23;100170.81;5035065;28;20518;-62
2022/07/30 07:38:03;;;;;;;1.30;1.30;;;;;;;54.06;3.31;100178.88;5031046;28;20395;-57
2022/07/30 07:40:28;;;;;;;1.60;1.50;;;;;;;52.65;3.95;100156.03;5029570;28;20383;-60
2022/07/30 07:42:54;;;;;;;3.20;1.45;;;;;;;51.18;4.89;100169.94;5030406;28;20153;-59
2022/07/30 07:45:19;;;;;;;1.75;1.65;;;;;;;52.10;4.60;100150.19;5039435;28;20064;-60
2022/07/30 07:47:46;;;;;;;1.73;1.50;;;;;;;53.10;3.70;100155.72;5047513;28;20036;-57
2022/07/30 07:50:14;;;;;;;2.63;2.17;;;;;;;53.93;3.62;100163.34;5042065;28;20363;-59
2022/07/30 07:52:39;;;;;;;2.42;1.85;;;;;;;54.79;3.20;100155.56;5036426;28;20033;-57
2022/07/30 07:55:06;;;;;;;1.80;1.70;;;;;;;53.41;3.83;100156.09;5043964;28;20021;-58
2022/07/30 07:57:40;;;;;;;2.17;2.00;;;;;;;50.64;5.28;100152.31;5039074;28;20030;-58
2022/07/30 08:00:07;;;;;;;1.30;1.13;;;;;;;46.31;7.29;100142.03;5039586;28;20069;-58
2022/07/30 08:02:32;;;;;;;1.38;1.17;;;;;;;43.68;9.39;100132.53;5039139;28;20044;-57
2022/07/30 08:04:58;;;;;;;2.90;1.30;;;;;;;42.24;11.08;100127.97;5039896;28;20045;-57
2022/07/30 08:07:23;;;;;;;1.60;1.10;;;;;;;43.94;10.45;100129.53;5041117;28;20041;-65
2022/07/30 08:09:49;;;;;;;1.08;0.70;;;;;;;44.28;9.32;100126.81;5041029;28;20024;-57
2022/07/30 08:12:15;;;;;;;4.20;1.40;;;;;;;44.66;9.08;100131.44;5037695;28;20385;-60
2022/07/30 08:14:40;;;;;;;2.15;1.08;;;;;;;45.39;8.66;100125.47;5039221;28;20123;-59
2022/07/30 08:17:06;;;;;;;1.30;0.80;;;;;;;46.05;8.37;100123.44;5038961;28;20465;-56
2022/07/30 08:19:31;;;;;;;1.10;1.00;;;;;;;45.89;8.01;100125.41;5037481;28;20142;-57
2022/07/30 08:21:58;;;;;;;1.25;0.77;;;;;;;43.10;10.15;100130.13;5040026;28;20082;-59
2022/07/30 08:24:24;;;;;;;1.80;0.90;;;;;;;39.48;12.36;100133.34;5040441;28;20067;-57
2022/07/30 08:26:49;;;;;;;1.10;0.80;;;;;;;37.03;14.05;100135.25;5044871;28;20028;-56
2022/07/30 08:29:15;;;;;;;1.27;0.80;;;;;;;35.31;15.89;100133.72;5042848;28;20026;-57
2022/07/30 08:31:41;;;;;;;4.43;1.13;;;;;;;34.01;17.38;100128.13;5047222;28;20086;-57
2022/07/30 08:34:06;;;;;;;2.38;1.00;;;;;;;32.89;18.03;100121.69;5044869;28;20037;-59
2022/07/30 08:36:32;;;;;;;1.13;0.57;;;;;;;31.48;18.99;100133.19;5042016;28;20033;-58
2022/07/30 08:38:58;;;;;;;1.27;0.70;;;;;;;30.64;20.48;100132.97;5043538;28;20030;-58
2022/07/30 08:41:24;;;;;;;2.40;0.95;;;;;;;30.07;21.25;100134.72;5044605;28;20021;-53
2022/07/30 08:43:50;;;;;;;1.13;0.50;;;;;;;29.46;21.80;100125.97;5043518;28;20071;-58
2022/07/30 08:46:17;;;;;;;1.13;0.52;;;;;;;28.82;21.40;100108.22;5042760;28;20488;-55
2022/07/30 08:48:43;;;;;;;1.58;0.50;;;;;;;28.55;22.38;100127.06;5043440;28;20126;-57
2022/07/30 08:51:09;;;;;;;0.85;0.70;;;;;;;28.30;23.13;100120.66;5043962;28;20108;-55
2022/07/30 08:53:35;;;;;;;2.53;0.73;;;;;;;28.04;23.80;100121.84;5042715;28;20457;-57
2022/07/30 08:56:02;;;;;;;0.70;0.57;;;;;;;27.56;23.47;100116.09;5043400;28;20033;-53
2022/07/30 08:58:35;;;;;;;0.80;0.60;;;;;;;27.35;24.73;100111.84;5041809;28;20037;-58
2022/07/30 09:01:04;;;;;;;1.13;0.65;;;;;;;27.31;24.54;100130.72;5043367;28;20021;-57
2022/07/30 09:03:31;;;;;;;1.85;0.98;;;;;;;27.24;25.31;100121.69;5050896;28;20036;-58
2022/07/30 09:05:57;;;;;;;2.63;0.80;;;;;;;27.20;25.02;100106.72;5052136;28;20106;-56
2022/07/30 09:08:22;;;;;;;0.93;0.68;;;;;;;27.38;24.06;100116.91;5053480;28;20477;-57
2022/07/30 09:10:48;;;;;;;1.45;0.77;;;;;;;27.56;23.05;100110.59;5053416;28;20432;-53
2022/07/30 09:13:31;;;;;;;1.50;0.40;;;;;;;27.84;21.88;100120.19;5053234;28;20050;-55
2022/07/30 09:15:57;;;;;;;0.90;0.50;;;;;;;27.58;22.38;100093.84;5035258;28;20036;-62
2022/07/30 09:18:35;;;;;;;1.40;0.65;;;;;;;27.69;22.12;100109.59;5051241;28;20477;-58
2022/07/30 09:21:14;;;;;;;1.08;0.70;;;;;;;27.39;22.88;100115.84;5035908;28;20038;-55
2022/07/30 09:23:39;;;;;;;1.42;0.65;;;;;;;26.98;23.15;100109.06;5032030;28;20083;-54
2022/07/30 09:26:05;;;;;;;2.30;0.70;;;;;;;26.76;23.42;100110.28;5036415;28;20025;-55
2022/07/30 09:28:33;;;;;;;1.50;0.50;;;;;;;26.55;24.08;100094.22;5052511;28;20033;-56
2022/07/30 09:30:59;;;;;;;1.05;0.60;;;;;;;26.71;24.39;100104.63;5052728;28;20112;-54
2022/07/30 09:33:32;;;;;;;2.25;0.80;;;;;;;27.00;24.10;100104.19;5051456;28;20029;-56
2022/07/30 09:35:58;;;;;;;1.55;0.55;;;;;;;26.98;24.42;100107.16;5032435;28;20041;-60
2022/07/30 09:38:25;;;;;;;3.35;0.68;;;;;;;27.02;24.37;100111.16;5032930;28;20033;-57
2022/07/30 09:40:52;;;;;;;3.00;0.50;;;;;;;26.89;24.12;100111.25;5041533;28;20043;-57
2022/07/30 09:43:17;;;;;;;1.77;0.52;;;;;;;26.93;24.20;100118.84;5052464;28;20051;-57
2022/07/30 09:45:56;;;;;;;4.20;0.80;;;;;;;27.17;23.51;100119.03;5052009;28;20506;-57
2022/07/30 09:48:24;;;;;;;2.17;0.70;;;;;;;27.16;23.22;100130.25;5051703;28;20115;-56
2022/07/30 09:50:52;;;;;;;3.47;0.60;;;;;;;27.15;23.04;100125.81;5050986;28;20033;-57
2022/07/30 09:53:18;;;;;;;1.17;0.73;;;;;;;27.16;23.05;100105.50;5046694;28;20469;-57
2022/07/30 09:55:44;;;;;;;1.60;0.70;;;;;;;27.24;23.03;100116.19;5032283;28;20037;-56
2022/07/30 09:58:11;;;;;;;1.50;0.70;;;;;;;27.25;22.55;100119.81;5040008;28;20037;-55
2022/07/30 10:00:38;;;;;;;0.68;0.68;;;;;;;27.15;22.61;100112.06;5050640;28;20037;-57
2022/07/30 10:03:23;;;;;;;2.13;0.57;;;;;;;27.14;21.77;100091.16;5051966;28;20032;-56
2022/07/30 10:05:59;;;;;;;0.50;0.40;;;;;;;27.15;21.50;100117.56;5052193;28;20049;-57
2022/07/30 10:08:57;;;;;;;2.53;0.60;;;;;;;27.08;21.62;100110.25;5037976;28;20181;-56
2022/07/30 10:11:24;;;;;;;1.83;0.70;;;;;;;26.75;22.62;100110.50;5030608;28;20051;-56
2022/07/30 10:13:53;;;;;;;0.98;0.57;;;;;;;26.70;22.64;100113.09;5047392;28;20037;-52
2022/07/30 10:16:19;;;;;;;2.58;0.70;;;;;;;26.57;23.18;100101.13;5052046;28;20075;-52
2022/07/30 10:18:45;;;;;;;0.73;0.50;;;;;;;26.49;22.83;100101.44;5035771;28;20037;-52
2022/07/30 10:21:11;;;;;;;0.55;0.50;;;;;;;26.35;23.34;100117.16;5031784;28;20044;-56
2022/07/30 10:23:37;;;;;;;2.75;0.70;;;;;;;26.13;23.86;100102.88;5032215;28;20026;-56
2022/07/30 10:26:03;;;;;;;1.90;0.70;;;;;;;25.92;24.55;100103.00;5031711;28;20437;-53
2022/07/30 10:28:29;;;;;;;2.42;0.95;;;;;;;25.59;24.97;100104.00;5031510;28;20144;-55
2022/07/30 10:30:57;;;;;;;2.42;0.77;;;;;;;25.52;25.95;100111.38;5037261;28;20032;-53
2022/07/30 10:33:25;;;;;;;2.03;0.80;;;;;;;25.48;25.50;100105.50;5051439;28;20041;-57
2022/07/30 10:35:50;;;;;;;1.58;0.80;;;;;;;25.59;25.14;100109.50;5051374;28;20118;-56
2022/07/30 10:38:19;;;;;;;2.08;0.90;;;;;;;25.84;24.99;100118.88;5049651;28;20393;-55
2022/07/30 10:40:54;;;;;;;0.52;0.52;;;;;;;26.12;24.68;100113.03;5051888;28;20091;-57
2022/07/30 10:43:51;;;;;;;1.33;0.98;;;;;;;26.41;23.63;100110.75;5051707;28;20098;-58
2022/07/30 10:47:02;;;;;;;0.88;0.63;;;;;;;26.58;23.33;100111.06;5050857;28;20033;-55
2022/07/30 10:49:28;;;;;;;1.05;0.70;;;;;;;26.39;23.88;100123.88;5049046;28;21403;-57
2022/07/30 10:51:53;;;;;;;0.70;0.68;;;;;;;26.33;23.82;100122.84;5049545;28;20033;-54
2022/07/30 10:54:38;;;;;;;0.40;0.40;;;;;;;26.41;23.14;100115.44;5041703;28;20485;-64
2022/07/30 10:57:13;;;;;;;0.60;0.60;;;;;;;26.38;23.12;100122.19;5040307;28;20029;-54
2022/07/30 10:59:59;;;;;;;0.80;0.75;;;;;;;26.39;23.05;100110.16;5049433;28;20040;-54
2022/07/30 11:02:27;;;;;;;0.98;0.60;;;;;;;26.01;22.75;100111.81;5049085;28;20087;-55
2022/07/30 11:05:17;;;;;;;0.70;0.70;;;;;;;26.11;22.95;100105.88;5032518;28;20184;-59
2022/07/30 11:07:43;;;;;;;0.77;0.70;;;;;;;25.96;23.32;100097.06;5028939;28;20049;-57
2022/07/30 11:10:39;;;;;;;1.17;0.68;;;;;;;26.16;23.28;100099.69;5029346;28;20037;-55
2022/07/30 11:13:05;;;;;;;2.03;0.70;;;;;;;26.12;23.45;100107.53;5028946;28;20056;-58
2022/07/30 11:15:49;;;;;;;1.15;0.63;;;;;;;26.31;22.96;100107.69;5031877;28;20025;-55
2022/07/30 11:18:15;;;;;;;4.85;0.70;;;;;;;26.18;22.96;100101.19;5048810;28;20029;-57
2022/07/30 11:20:41;;;;;;;2.03;0.77;;;;;;;26.18;23.50;100101.19;5049822;28;20056;-53
2022/07/30 11:23:30;;;;;;;2.15;0.68;;;;;;;26.21;23.61;100094.44;5050990;28;20059;-57
2022/07/30 11:25:56;;;;;;;0.85;0.75;;;;;;;26.16;23.51;100102.44;5050820;28;20060;-52
2022/07/30 11:28:37;;;;;;;1.02;0.90;;;;;;;26.21;23.36;100103.50;5042223;28;20113;-57
2022/07/30 11:31:23;;;;;;;1.30;0.60;;;;;;;26.03;23.80;100100.63;5031419;28;20025;-57
2022/07/30 11:33:49;;;;;;;3.10;1.05;;;;;;;25.75;23.50;100074.38;5030364;28;20056;-57
2022/07/30 11:36:14;;;;;;;1.58;1.02;;;;;;;25.73;23.32;100088.34;5044400;28;20422;-55